Smithers, Canada
Current Conditions -  °F | °C
As of 12:49 AM on Friday 24 Oct 2014 (Local Time) from CYYD Reporting Station
Haze Haze  
Wind Chill: 28°   Ceiling: Unl
Heat Index: 28°   Visibility: 1.7mi
Dew Point: 28°   Wind: 3mph
Humidity: 100%   Direction: 30°NNE
Pressure: 29.82"   Gusts: NA
Location:  54.78°N, 127.17°W
Report Text: CYYD 240749Z AUTO 03003KT 010V120 1 3/4SM BR SCT001 M02/M02 A2982 RMK SLP113
Loading
Personal Weather Stations






























Interactive Weather Map
Tropical Storm Tracking
New forecast layout! Learn more

10-Day Weather Forecast

Advertisements
Track Severe Weather on mobile